sensor_id;sensor_type;location;lat;lon;timestamp;P1;durP1;ratioP1;P2;durP2;ratioP2
75400;SDS011;63974;47.538;18.972;2024-01-25T00:01:56;17.33;;;8.27;;
75400;SDS011;63974;47.538;18.972;2024-01-25T00:04:59;15.25;;;8.88;;
75400;SDS011;63974;47.538;18.972;2024-01-25T00:08:01;15.55;;;7.10;;
75400;SDS011;63974;47.538;18.972;2024-01-25T00:11:04;17.63;;;8.03;;
75400;SDS011;63974;47.538;18.972;2024-01-25T00:14:07;14.90;;;7.67;;
75400;SDS011;63974;47.538;18.972;2024-01-25T00:17:10;15.43;;;7.70;;
75400;SDS011;63974;47.538;18.972;2024-01-25T00:20:13;15.63;;;7.38;;
75400;SDS011;63974;47.538;18.972;2024-01-25T00:23:16;14.57;;;7.18;;
75400;SDS011;63974;47.538;18.972;2024-01-25T00:26:18;17.13;;;7.03;;
75400;SDS011;63974;47.538;18.972;2024-01-25T00:29:21;14.50;;;7.33;;
75400;SDS011;63974;47.538;18.972;2024-01-25T00:32:24;17.23;;;7.70;;
75400;SDS011;63974;47.538;18.972;2024-01-25T00:35:27;15.55;;;7.70;;
75400;SDS011;63974;47.538;18.972;2024-01-25T00:38:30;15.73;;;6.78;;
75400;SDS011;63974;47.538;18.972;2024-01-25T00:41:33;13.90;;;6.90;;
75400;SDS011;63974;47.538;18.972;2024-01-25T00:44:37;14.70;;;8.03;;
75400;SDS011;63974;47.538;18.972;2024-01-25T00:47:40;16.92;;;8.02;;
75400;SDS011;63974;47.538;18.972;2024-01-25T00:50:43;16.15;;;7.47;;
75400;SDS011;63974;47.538;18.972;2024-01-25T00:53:46;13.88;;;7.55;;
75400;SDS011;63974;47.538;18.972;2024-01-25T00:56:49;14.60;;;7.40;;
75400;SDS011;63974;47.538;18.972;2024-01-25T00:59:54;13.43;;;6.67;;
75400;SDS011;63974;47.538;18.972;2024-01-25T01:02:58;16.20;;;7.65;;
75400;SDS011;63974;47.538;18.972;2024-01-25T01:06:02;13.27;;;6.88;;
75400;SDS011;63974;47.538;18.972;2024-01-25T01:09:05;12.82;;;5.55;;
75400;SDS011;63974;47.538;18.972;2024-01-25T01:12:09;13.23;;;6.10;;
75400;SDS011;63974;47.538;18.972;2024-01-25T01:15:12;12.53;;;6.87;;
75400;SDS011;63974;47.538;18.972;2024-01-25T01:18:15;13.68;;;6.63;;
75400;SDS011;63974;47.538;18.972;2024-01-25T01:21:18;18.27;;;7.07;;
75400;SDS011;63974;47.538;18.972;2024-01-25T01:24:20;13.90;;;7.25;;
75400;SDS011;63974;47.538;18.972;2024-01-25T01:27:23;15.00;;;6.57;;
75400;SDS011;63974;47.538;18.972;2024-01-25T01:30:26;9.23;;;5.17;;
75400;SDS011;63974;47.538;18.972;2024-01-25T01:33:29;11.02;;;5.65;;
75400;SDS011;63974;47.538;18.972;2024-01-25T01:36:32;11.10;;;5.55;;
75400;SDS011;63974;47.538;18.972;2024-01-25T01:39:34;10.80;;;4.97;;
75400;SDS011;63974;47.538;18.972;2024-01-25T01:42:37;10.30;;;5.57;;
75400;SDS011;63974;47.538;18.972;2024-01-25T01:45:40;12.37;;;5.70;;
75400;SDS011;63974;47.538;18.972;2024-01-25T01:48:43;9.02;;;4.70;;
75400;SDS011;63974;47.538;18.972;2024-01-25T01:51:46;11.27;;;4.85;;
75400;SDS011;63974;47.538;18.972;2024-01-25T01:54:49;9.32;;;5.03;;
75400;SDS011;63974;47.538;18.972;2024-01-25T01:57:52;8.60;;;5.17;;
75400;SDS011;63974;47.538;18.972;2024-01-25T02:00:55;8.67;;;4.30;;
75400;SDS011;63974;47.538;18.972;2024-01-25T02:03:58;7.30;;;3.60;;
75400;SDS011;63974;47.538;18.972;2024-01-25T02:07:01;5.70;;;3.03;;
75400;SDS011;63974;47.538;18.972;2024-01-25T02:10:04;5.45;;;3.00;;
75400;SDS011;63974;47.538;18.972;2024-01-25T02:13:07;7.30;;;3.90;;
75400;SDS011;63974;47.538;18.972;2024-01-25T02:16:10;7.57;;;3.60;;
75400;SDS011;63974;47.538;18.972;2024-01-25T02:19:13;8.45;;;3.72;;
75400;SDS011;63974;47.538;18.972;2024-01-25T02:22:19;6.55;;;3.92;;
75400;SDS011;63974;47.538;18.972;2024-01-25T02:25:22;10.52;;;4.85;;
75400;SDS011;63974;47.538;18.972;2024-01-25T02:28:26;8.43;;;3.90;;
75400;SDS011;63974;47.538;18.972;2024-01-25T02:31:29;8.37;;;4.47;;
75400;SDS011;63974;47.538;18.972;2024-01-25T02:34:32;9.73;;;5.05;;
75400;SDS011;63974;47.538;18.972;2024-01-25T02:37:35;7.78;;;4.22;;
75400;SDS011;63974;47.538;18.972;2024-01-25T02:40:37;13.15;;;5.25;;
75400;SDS011;63974;47.538;18.972;2024-01-25T02:43:40;11.00;;;5.33;;
75400;SDS011;63974;47.538;18.972;2024-01-25T02:46:43;10.40;;;5.67;;
75400;SDS011;63974;47.538;18.972;2024-01-25T02:49:47;10.20;;;5.72;;
75400;SDS011;63974;47.538;18.972;2024-01-25T02:52:50;18.30;;;6.28;;
75400;SDS011;63974;47.538;18.972;2024-01-25T02:55:53;13.15;;;6.57;;
75400;SDS011;63974;47.538;18.972;2024-01-25T02:58:56;13.73;;;7.07;;
75400;SDS011;63974;47.538;18.972;2024-01-25T03:01:59;11.47;;;6.37;;
75400;SDS011;63974;47.538;18.972;2024-01-25T03:05:02;12.23;;;5.45;;
75400;SDS011;63974;47.538;18.972;2024-01-25T03:08:05;20.92;;;8.82;;
75400;SDS011;63974;47.538;18.972;2024-01-25T03:11:08;22.17;;;8.68;;
75400;SDS011;63974;47.538;18.972;2024-01-25T03:14:10;19.73;;;8.33;;
75400;SDS011;63974;47.538;18.972;2024-01-25T03:17:13;17.60;;;7.87;;
75400;SDS011;63974;47.538;18.972;2024-01-25T03:20:16;11.52;;;5.90;;
75400;SDS011;63974;47.538;18.972;2024-01-25T03:23:19;18.88;;;6.35;;
75400;SDS011;63974;47.538;18.972;2024-01-25T03:26:22;13.80;;;7.03;;
75400;SDS011;63974;47.538;18.972;2024-01-25T03:29:24;10.10;;;5.90;;
75400;SDS011;63974;47.538;18.972;2024-01-25T03:32:27;16.37;;;8.20;;
75400;SDS011;63974;47.538;18.972;2024-01-25T03:35:33;11.48;;;7.03;;
75400;SDS011;63974;47.538;18.972;2024-01-25T03:38:36;16.33;;;8.02;;
75400;SDS011;63974;47.538;18.972;2024-01-25T03:41:38;11.35;;;7.10;;
75400;SDS011;63974;47.538;18.972;2024-01-25T03:44:41;12.43;;;7.83;;
75400;SDS011;63974;47.538;18.972;2024-01-25T03:47:45;12.60;;;7.20;;
75400;SDS011;63974;47.538;18.972;2024-01-25T03:50:47;12.52;;;6.65;;
75400;SDS011;63974;47.538;18.972;2024-01-25T03:53:51;18.92;;;7.05;;
75400;SDS011;63974;47.538;18.972;2024-01-25T03:56:55;14.52;;;7.28;;
75400;SDS011;63974;47.538;18.972;2024-01-25T03:59:58;12.67;;;6.83;;
75400;SDS011;63974;47.538;18.972;2024-01-25T04:03:00;14.53;;;6.50;;
75400;SDS011;63974;47.538;18.972;2024-01-25T04:06:03;11.27;;;5.50;;
75400;SDS011;63974;47.538;18.972;2024-01-25T04:09:06;13.85;;;7.28;;
75400;SDS011;63974;47.538;18.972;2024-01-25T04:12:09;13.63;;;7.22;;
75400;SDS011;63974;47.538;18.972;2024-01-25T04:15:11;13.53;;;6.90;;
75400;SDS011;63974;47.538;18.972;2024-01-25T04:18:14;13.83;;;6.40;;
75400;SDS011;63974;47.538;18.972;2024-01-25T04:21:17;13.90;;;6.00;;
75400;SDS011;63974;47.538;18.972;2024-01-25T04:24:20;14.98;;;6.13;;
75400;SDS011;63974;47.538;18.972;2024-01-25T04:27:22;14.30;;;6.65;;
75400;SDS011;63974;47.538;18.972;2024-01-25T04:30:25;13.30;;;6.60;;
75400;SDS011;63974;47.538;18.972;2024-01-25T04:33:27;16.27;;;6.97;;
75400;SDS011;63974;47.538;18.972;2024-01-25T04:36:30;14.38;;;6.97;;
75400;SDS011;63974;47.538;18.972;2024-01-25T04:39:33;14.50;;;7.15;;
75400;SDS011;63974;47.538;18.972;2024-01-25T04:42:36;11.32;;;6.57;;
75400;SDS011;63974;47.538;18.972;2024-01-25T04:45:39;12.13;;;6.70;;
75400;SDS011;63974;47.538;18.972;2024-01-25T04:48:42;15.80;;;7.73;;
75400;SDS011;63974;47.538;18.972;2024-01-25T04:51:45;14.82;;;7.75;;
75400;SDS011;63974;47.538;18.972;2024-01-25T04:54:48;15.02;;;7.45;;
75400;SDS011;63974;47.538;18.972;2024-01-25T04:57:51;15.35;;;7.93;;
75400;SDS011;63974;47.538;18.972;2024-01-25T05:00:56;15.63;;;8.10;;
75400;SDS011;63974;47.538;18.972;2024-01-25T05:03:59;15.47;;;8.40;;
75400;SDS011;63974;47.538;18.972;2024-01-25T05:07:02;19.15;;;9.10;;
75400;SDS011;63974;47.538;18.972;2024-01-25T05:10:06;16.00;;;8.70;;
75400;SDS011;63974;47.538;18.972;2024-01-25T05:13:10;20.45;;;10.60;;
75400;SDS011;63974;47.538;18.972;2024-01-25T05:16:14;22.40;;;10.80;;
75400;SDS011;63974;47.538;18.972;2024-01-25T05:19:17;18.27;;;9.73;;
75400;SDS011;63974;47.538;18.972;2024-01-25T05:22:20;17.45;;;9.65;;
75400;SDS011;63974;47.538;18.972;2024-01-25T05:25:24;19.17;;;9.90;;
75400;SDS011;63974;47.538;18.972;2024-01-25T05:28:28;18.83;;;9.95;;
75400;SDS011;63974;47.538;18.972;2024-01-25T05:31:31;24.67;;;10.43;;
75400;SDS011;63974;47.538;18.972;2024-01-25T05:34:34;15.97;;;9.83;;
75400;SDS011;63974;47.538;18.972;2024-01-25T05:37:37;19.60;;;10.30;;
75400;SDS011;63974;47.538;18.972;2024-01-25T05:40:39;16.05;;;9.95;;
75400;SDS011;63974;47.538;18.972;2024-01-25T05:43:42;18.70;;;10.45;;
75400;SDS011;63974;47.538;18.972;2024-01-25T05:46:45;22.77;;;12.17;;
75400;SDS011;63974;47.538;18.972;2024-01-25T05:49:47;21.40;;;12.63;;
75400;SDS011;63974;47.538;18.972;2024-01-25T05:52:50;26.92;;;10.63;;
75400;SDS011;63974;47.538;18.972;2024-01-25T05:55:53;18.67;;;10.82;;
75400;SDS011;63974;47.538;18.972;2024-01-25T05:58:56;19.70;;;10.13;;
75400;SDS011;63974;47.538;18.972;2024-01-25T06:01:59;16.40;;;8.30;;
75400;SDS011;63974;47.538;18.972;2024-01-25T06:05:02;18.40;;;9.00;;
75400;SDS011;63974;47.538;18.972;2024-01-25T06:08:05;14.77;;;8.40;;
75400;SDS011;63974;47.538;18.972;2024-01-25T06:11:08;18.17;;;9.43;;
75400;SDS011;63974;47.538;18.972;2024-01-25T06:14:12;18.50;;;9.45;;
75400;SDS011;63974;47.538;18.972;2024-01-25T06:17:14;22.83;;;9.43;;
75400;SDS011;63974;47.538;18.972;2024-01-25T06:20:17;22.67;;;10.83;;
75400;SDS011;63974;47.538;18.972;2024-01-25T06:23:20;32.83;;;14.02;;
75400;SDS011;63974;47.538;18.972;2024-01-25T06:26:23;26.70;;;12.50;;
75400;SDS011;63974;47.538;18.972;2024-01-25T06:29:25;30.00;;;14.38;;
75400;SDS011;63974;47.538;18.972;2024-01-25T06:32:28;21.73;;;11.57;;
75400;SDS011;63974;47.538;18.972;2024-01-25T06:35:31;21.83;;;10.47;;
75400;SDS011;63974;47.538;18.972;2024-01-25T06:38:34;39.92;;;18.25;;
75400;SDS011;63974;47.538;18.972;2024-01-25T06:41:38;33.63;;;16.55;;
75400;SDS011;63974;47.538;18.972;2024-01-25T06:44:41;26.35;;;13.60;;
75400;SDS011;63974;47.538;18.972;2024-01-25T06:47:43;38.27;;;15.83;;
75400;SDS011;63974;47.538;18.972;2024-01-25T06:50:46;33.47;;;15.40;;
75400;SDS011;63974;47.538;18.972;2024-01-25T06:53:49;21.52;;;10.68;;
75400;SDS011;63974;47.538;18.972;2024-01-25T06:56:52;19.55;;;10.30;;
75400;SDS011;63974;47.538;18.972;2024-01-25T06:59:54;22.17;;;11.82;;
75400;SDS011;63974;47.538;18.972;2024-01-25T07:02:58;21.60;;;11.07;;
75400;SDS011;63974;47.538;18.972;2024-01-25T07:06:01;20.87;;;11.73;;
75400;SDS011;63974;47.538;18.972;2024-01-25T07:09:06;15.57;;;7.32;;
75400;SDS011;63974;47.538;18.972;2024-01-25T07:12:09;20.42;;;10.65;;
75400;SDS011;63974;47.538;18.972;2024-01-25T07:15:12;20.88;;;11.15;;
75400;SDS011;63974;47.538;18.972;2024-01-25T07:18:15;15.30;;;8.43;;
75400;SDS011;63974;47.538;18.972;2024-01-25T07:21:19;14.97;;;7.33;;
75400;SDS011;63974;47.538;18.972;2024-01-25T07:24:22;13.95;;;7.25;;
75400;SDS011;63974;47.538;18.972;2024-01-25T07:27:25;14.55;;;7.15;;
75400;SDS011;63974;47.538;18.972;2024-01-25T07:30:28;13.60;;;6.93;;
75400;SDS011;63974;47.538;18.972;2024-01-25T07:33:30;17.97;;;7.73;;
75400;SDS011;63974;47.538;18.972;2024-01-25T07:36:38;15.23;;;8.23;;
75400;SDS011;63974;47.538;18.972;2024-01-25T07:39:41;15.55;;;7.35;;
75400;SDS011;63974;47.538;18.972;2024-01-25T07:42:45;18.42;;;7.75;;
75400;SDS011;63974;47.538;18.972;2024-01-25T07:45:49;12.60;;;6.25;;
75400;SDS011;63974;47.538;18.972;2024-01-25T07:48:55;11.80;;;6.63;;
75400;SDS011;63974;47.538;18.972;2024-01-25T07:51:58;13.97;;;6.23;;
75400;SDS011;63974;47.538;18.972;2024-01-25T07:55:01;11.57;;;6.68;;
75400;SDS011;63974;47.538;18.972;2024-01-25T07:58:07;13.18;;;6.90;;
75400;SDS011;63974;47.538;18.972;2024-01-25T08:01:10;16.48;;;7.45;;
75400;SDS011;63974;47.538;18.972;2024-01-25T08:04:13;14.80;;;8.00;;
75400;SDS011;63974;47.538;18.972;2024-01-25T08:07:16;15.10;;;7.70;;
75400;SDS011;63974;47.538;18.972;2024-01-25T08:10:19;15.77;;;9.52;;
75400;SDS011;63974;47.538;18.972;2024-01-25T08:13:21;18.35;;;9.20;;
75400;SDS011;63974;47.538;18.972;2024-01-25T08:16:25;16.90;;;10.38;;
75400;SDS011;63974;47.538;18.972;2024-01-25T08:19:28;15.33;;;7.77;;
75400;SDS011;63974;47.538;18.972;2024-01-25T08:22:31;13.83;;;6.73;;
75400;SDS011;63974;47.538;18.972;2024-01-25T08:25:34;12.23;;;6.07;;
75400;SDS011;63974;47.538;18.972;2024-01-25T08:28:40;15.15;;;7.03;;
75400;SDS011;63974;47.538;18.972;2024-01-25T08:31:44;11.48;;;6.07;;
75400;SDS011;63974;47.538;18.972;2024-01-25T08:34:47;12.80;;;6.23;;
75400;SDS011;63974;47.538;18.972;2024-01-25T08:37:49;9.93;;;5.93;;
75400;SDS011;63974;47.538;18.972;2024-01-25T08:40:53;12.38;;;6.13;;
75400;SDS011;63974;47.538;18.972;2024-01-25T08:43:55;14.32;;;5.75;;
75400;SDS011;63974;47.538;18.972;2024-01-25T08:46:58;15.15;;;7.53;;
75400;SDS011;63974;47.538;18.972;2024-01-25T08:50:01;14.73;;;6.27;;
75400;SDS011;63974;47.538;18.972;2024-01-25T08:53:04;10.47;;;6.13;;
75400;SDS011;63974;47.538;18.972;2024-01-25T08:56:07;14.32;;;6.20;;
75400;SDS011;63974;47.538;18.972;2024-01-25T08:59:10;13.40;;;6.45;;
75400;SDS011;63974;47.538;18.972;2024-01-25T09:02:13;13.30;;;6.40;;
75400;SDS011;63974;47.538;18.972;2024-01-25T09:05:16;12.87;;;6.60;;
75400;SDS011;63974;47.538;18.972;2024-01-25T09:08:19;14.13;;;7.17;;
75400;SDS011;63974;47.538;18.972;2024-01-25T09:11:22;14.63;;;7.38;;
75400;SDS011;63974;47.538;18.972;2024-01-25T09:14:25;13.50;;;7.57;;
75400;SDS011;63974;47.538;18.972;2024-01-25T09:17:28;21.60;;;9.98;;
75400;SDS011;63974;47.538;18.972;2024-01-25T09:20:31;13.67;;;5.90;;
75400;SDS011;63974;47.538;18.972;2024-01-25T09:23:33;10.90;;;5.70;;
75400;SDS011;63974;47.538;18.972;2024-01-25T09:26:36;10.07;;;5.35;;
75400;SDS011;63974;47.538;18.972;2024-01-25T09:29:39;9.43;;;5.00;;
75400;SDS011;63974;47.538;18.972;2024-01-25T09:32:42;9.15;;;4.60;;
75400;SDS011;63974;47.538;18.972;2024-01-25T09:35:49;10.83;;;4.93;;
75400;SDS011;63974;47.538;18.972;2024-01-25T09:38:53;5.57;;;2.10;;
75400;SDS011;63974;47.538;18.972;2024-01-25T09:41:56;9.40;;;1.20;;
75400;SDS011;63974;47.538;18.972;2024-01-25T09:44:59;6.18;;;1.42;;
75400;SDS011;63974;47.538;18.972;2024-01-25T09:48:02;5.38;;;1.38;;
75400;SDS011;63974;47.538;18.972;2024-01-25T09:51:09;5.83;;;1.80;;
75400;SDS011;63974;47.538;18.972;2024-01-25T09:54:13;2.93;;;1.03;;
75400;SDS011;63974;47.538;18.972;2024-01-25T09:57:17;4.30;;;1.20;;
75400;SDS011;63974;47.538;18.972;2024-01-25T10:00:27;3.42;;;0.90;;
75400;SDS011;63974;47.538;18.972;2024-01-25T10:03:33;4.00;;;1.75;;
75400;SDS011;63974;47.538;18.972;2024-01-25T10:06:37;6.73;;;1.40;;
75400;SDS011;63974;47.538;18.972;2024-01-25T10:09:41;3.97;;;1.43;;
75400;SDS011;63974;47.538;18.972;2024-01-25T10:12:45;5.45;;;1.88;;
75400;SDS011;63974;47.538;18.972;2024-01-25T10:15:47;4.97;;;2.38;;
75400;SDS011;63974;47.538;18.972;2024-01-25T10:18:51;7.57;;;2.00;;
75400;SDS011;63974;47.538;18.972;2024-01-25T10:21:56;7.33;;;2.03;;
75400;SDS011;63974;47.538;18.972;2024-01-25T10:25:00;4.17;;;1.37;;
75400;SDS011;63974;47.538;18.972;2024-01-25T10:28:04;9.48;;;2.20;;
75400;SDS011;63974;47.538;18.972;2024-01-25T10:31:08;7.03;;;1.85;;
75400;SDS011;63974;47.538;18.972;2024-01-25T10:34:13;6.95;;;1.48;;
75400;SDS011;63974;47.538;18.972;2024-01-25T10:37:16;8.00;;;1.83;;
75400;SDS011;63974;47.538;18.972;2024-01-25T10:40:21;8.63;;;2.87;;
75400;SDS011;63974;47.538;18.972;2024-01-25T10:43:25;6.88;;;1.88;;
75400;SDS011;63974;47.538;18.972;2024-01-25T10:46:28;4.50;;;1.50;;
75400;SDS011;63974;47.538;18.972;2024-01-25T10:49:32;4.40;;;1.88;;
75400;SDS011;63974;47.538;18.972;2024-01-25T10:52:35;5.53;;;1.73;;
75400;SDS011;63974;47.538;18.972;2024-01-25T10:55:42;7.43;;;2.03;;
75400;SDS011;63974;47.538;18.972;2024-01-25T10:58:46;5.90;;;2.28;;
75400;SDS011;63974;47.538;18.972;2024-01-25T11:01:53;8.90;;;2.03;;
75400;SDS011;63974;47.538;18.972;2024-01-25T11:04:56;7.22;;;1.67;;
75400;SDS011;63974;47.538;18.972;2024-01-25T11:08:03;5.40;;;1.93;;
75400;SDS011;63974;47.538;18.972;2024-01-25T11:11:06;5.10;;;2.03;;
75400;SDS011;63974;47.538;18.972;2024-01-25T11:14:13;7.25;;;2.10;;
75400;SDS011;63974;47.538;18.972;2024-01-25T11:17:19;3.15;;;0.95;;
75400;SDS011;63974;47.538;18.972;2024-01-25T11:20:24;3.13;;;0.90;;
75400;SDS011;63974;47.538;18.972;2024-01-25T11:23:31;5.63;;;1.07;;
75400;SDS011;63974;47.538;18.972;2024-01-25T11:26:34;4.23;;;1.10;;
75400;SDS011;63974;47.538;18.972;2024-01-25T11:29:38;5.45;;;0.90;;
75400;SDS011;63974;47.538;18.972;2024-01-25T11:32:45;3.97;;;1.13;;
75400;SDS011;63974;47.538;18.972;2024-01-25T11:35:54;4.95;;;1.38;;
75400;SDS011;63974;47.538;18.972;2024-01-25T11:38:57;6.20;;;1.47;;
75400;SDS011;63974;47.538;18.972;2024-01-25T11:42:00;3.60;;;0.90;;
75400;SDS011;63974;47.538;18.972;2024-01-25T11:45:04;5.00;;;1.77;;
75400;SDS011;63974;47.538;18.972;2024-01-25T11:48:12;4.78;;;1.38;;
75400;SDS011;63974;47.538;18.972;2024-01-25T11:51:15;4.70;;;1.05;;
75400;SDS011;63974;47.538;18.972;2024-01-25T11:54:17;4.63;;;1.47;;
75400;SDS011;63974;47.538;18.972;2024-01-25T11:57:20;6.90;;;1.17;;
75400;SDS011;63974;47.538;18.972;2024-01-25T12:00:23;5.75;;;2.10;;
75400;SDS011;63974;47.538;18.972;2024-01-25T12:03:26;10.18;;;2.47;;
75400;SDS011;63974;47.538;18.972;2024-01-25T12:06:29;6.40;;;1.42;;
75400;SDS011;63974;47.538;18.972;2024-01-25T12:09:32;4.13;;;1.70;;
75400;SDS011;63974;47.538;18.972;2024-01-25T12:12:36;4.77;;;1.50;;
75400;SDS011;63974;47.538;18.972;2024-01-25T12:15:42;4.07;;;1.60;;
75400;SDS011;63974;47.538;18.972;2024-01-25T12:18:45;6.13;;;1.52;;
75400;SDS011;63974;47.538;18.972;2024-01-25T12:21:48;5.00;;;1.48;;
75400;SDS011;63974;47.538;18.972;2024-01-25T12:24:54;6.10;;;3.27;;
75400;SDS011;63974;47.538;18.972;2024-01-25T12:28:02;6.07;;;1.70;;
75400;SDS011;63974;47.538;18.972;2024-01-25T12:31:08;5.50;;;1.67;;
75400;SDS011;63974;47.538;18.972;2024-01-25T12:34:14;7.78;;;1.63;;
75400;SDS011;63974;47.538;18.972;2024-01-25T12:37:18;4.32;;;1.30;;
75400;SDS011;63974;47.538;18.972;2024-01-25T12:40:21;6.83;;;2.10;;
75400;SDS011;63974;47.538;18.972;2024-01-25T12:43:24;4.90;;;1.83;;
75400;SDS011;63974;47.538;18.972;2024-01-25T12:46:28;10.15;;;2.03;;
75400;SDS011;63974;47.538;18.972;2024-01-25T12:49:33;4.63;;;1.95;;
75400;SDS011;63974;47.538;18.972;2024-01-25T12:52:36;10.35;;;3.50;;
75400;SDS011;63974;47.538;18.972;2024-01-25T12:55:38;7.23;;;2.47;;
75400;SDS011;63974;47.538;18.972;2024-01-25T12:58:42;7.43;;;1.90;;
75400;SDS011;63974;47.538;18.972;2024-01-25T13:01:45;6.25;;;1.80;;
75400;SDS011;63974;47.538;18.972;2024-01-25T13:04:49;7.68;;;1.95;;
75400;SDS011;63974;47.538;18.972;2024-01-25T13:07:53;4.22;;;1.73;;
75400;SDS011;63974;47.538;18.972;2024-01-25T13:10:56;8.00;;;1.33;;
75400;SDS011;63974;47.538;18.972;2024-01-25T13:13:59;3.17;;;1.20;;
75400;SDS011;63974;47.538;18.972;2024-01-25T13:17:02;8.68;;;1.88;;
75400;SDS011;63974;47.538;18.972;2024-01-25T13:20:05;5.10;;;1.42;;
75400;SDS011;63974;47.538;18.972;2024-01-25T13:23:09;5.30;;;1.52;;
75400;SDS011;63974;47.538;18.972;2024-01-25T13:26:12;9.33;;;2.40;;
75400;SDS011;63974;47.538;18.972;2024-01-25T13:29:14;6.10;;;1.97;;
75400;SDS011;63974;47.538;18.972;2024-01-25T13:32:17;5.25;;;1.98;;
75400;SDS011;63974;47.538;18.972;2024-01-25T13:35:20;7.07;;;1.98;;
75400;SDS011;63974;47.538;18.972;2024-01-25T13:38:22;6.05;;;1.35;;
75400;SDS011;63974;47.538;18.972;2024-01-25T13:41:26;12.10;;;3.57;;
75400;SDS011;63974;47.538;18.972;2024-01-25T13:44:29;9.63;;;1.90;;
75400;SDS011;63974;47.538;18.972;2024-01-25T13:47:32;4.07;;;1.08;;
75400;SDS011;63974;47.538;18.972;2024-01-25T13:50:35;8.65;;;2.53;;
75400;SDS011;63974;47.538;18.972;2024-01-25T13:53:38;6.55;;;2.20;;
75400;SDS011;63974;47.538;18.972;2024-01-25T13:56:41;6.83;;;2.63;;
75400;SDS011;63974;47.538;18.972;2024-01-25T13:59:43;8.40;;;2.47;;
75400;SDS011;63974;47.538;18.972;2024-01-25T14:02:46;10.43;;;3.95;;
75400;SDS011;63974;47.538;18.972;2024-01-25T14:05:49;7.60;;;3.10;;
75400;SDS011;63974;47.538;18.972;2024-01-25T14:08:52;11.82;;;4.40;;
75400;SDS011;63974;47.538;18.972;2024-01-25T14:11:55;12.50;;;3.87;;
75400;SDS011;63974;47.538;18.972;2024-01-25T14:14:58;8.80;;;2.77;;
75400;SDS011;63974;47.538;18.972;2024-01-25T14:18:00;13.18;;;3.78;;
75400;SDS011;63974;47.538;18.972;2024-01-25T14:21:04;9.10;;;3.90;;
75400;SDS011;63974;47.538;18.972;2024-01-25T14:24:08;7.55;;;2.20;;
75400;SDS011;63974;47.538;18.972;2024-01-25T14:27:11;10.47;;;3.57;;
75400;SDS011;63974;47.538;18.972;2024-01-25T14:30:14;7.90;;;2.70;;
75400;SDS011;63974;47.538;18.972;2024-01-25T14:33:18;8.13;;;3.20;;
75400;SDS011;63974;47.538;18.972;2024-01-25T14:36:21;10.20;;;2.90;;
75400;SDS011;63974;47.538;18.972;2024-01-25T14:39:24;8.57;;;2.72;;
75400;SDS011;63974;47.538;18.972;2024-01-25T14:42:26;11.67;;;3.20;;
75400;SDS011;63974;47.538;18.972;2024-01-25T14:45:29;8.17;;;1.80;;
75400;SDS011;63974;47.538;18.972;2024-01-25T14:48:32;5.30;;;1.50;;
75400;SDS011;63974;47.538;18.972;2024-01-25T14:51:35;7.45;;;2.17;;
75400;SDS011;63974;47.538;18.972;2024-01-25T14:54:38;9.30;;;2.00;;
75400;SDS011;63974;47.538;18.972;2024-01-25T14:57:41;7.40;;;1.90;;
75400;SDS011;63974;47.538;18.972;2024-01-25T15:00:44;5.47;;;2.13;;
75400;SDS011;63974;47.538;18.972;2024-01-25T15:03:47;9.38;;;2.63;;
75400;SDS011;63974;47.538;18.972;2024-01-25T15:06:50;5.78;;;2.80;;
75400;SDS011;63974;47.538;18.972;2024-01-25T15:09:53;10.43;;;2.45;;
75400;SDS011;63974;47.538;18.972;2024-01-25T15:12:57;7.80;;;1.93;;
75400;SDS011;63974;47.538;18.972;2024-01-25T15:16:02;8.10;;;1.93;;
75400;SDS011;63974;47.538;18.972;2024-01-25T15:19:05;10.02;;;2.40;;
75400;SDS011;63974;47.538;18.972;2024-01-25T15:22:08;12.13;;;4.10;;
75400;SDS011;63974;47.538;18.972;2024-01-25T15:25:11;9.75;;;2.60;;
75400;SDS011;63974;47.538;18.972;2024-01-25T15:28:14;154.60;;;47.77;;
75400;SDS011;63974;47.538;18.972;2024-01-25T15:31:21;44.03;;;14.57;;
75400;SDS011;63974;47.538;18.972;2024-01-25T15:34:24;16.00;;;5.88;;
75400;SDS011;63974;47.538;18.972;2024-01-25T15:37:27;10.77;;;5.50;;
75400;SDS011;63974;47.538;18.972;2024-01-25T15:40:29;11.48;;;3.97;;
75400;SDS011;63974;47.538;18.972;2024-01-25T15:43:32;58.37;;;30.70;;
75400;SDS011;63974;47.538;18.972;2024-01-25T15:46:35;16.13;;;8.23;;
75400;SDS011;63974;47.538;18.972;2024-01-25T15:49:38;9.77;;;3.45;;
75400;SDS011;63974;47.538;18.972;2024-01-25T15:52:41;6.30;;;2.03;;
75400;SDS011;63974;47.538;18.972;2024-01-25T15:55:46;5.10;;;1.40;;
75400;SDS011;63974;47.538;18.972;2024-01-25T15:58:49;7.77;;;2.00;;
75400;SDS011;63974;47.538;18.972;2024-01-25T16:01:51;4.13;;;1.63;;
75400;SDS011;63974;47.538;18.972;2024-01-25T16:04:54;4.40;;;1.60;;
75400;SDS011;63974;47.538;18.972;2024-01-25T16:07:57;8.05;;;1.63;;
75400;SDS011;63974;47.538;18.972;2024-01-25T16:11:00;8.90;;;1.60;;
75400;SDS011;63974;47.538;18.972;2024-01-25T16:14:05;5.23;;;1.43;;
75400;SDS011;63974;47.538;18.972;2024-01-25T16:17:11;12.03;;;2.77;;
75400;SDS011;63974;47.538;18.972;2024-01-25T16:20:16;8.15;;;3.63;;
75400;SDS011;63974;47.538;18.972;2024-01-25T16:23:20;7.05;;;1.90;;
75400;SDS011;63974;47.538;18.972;2024-01-25T16:26:23;3.78;;;1.60;;
75400;SDS011;63974;47.538;18.972;2024-01-25T16:29:25;7.90;;;1.17;;
75400;SDS011;63974;47.538;18.972;2024-01-25T16:32:28;8.80;;;1.30;;
75400;SDS011;63974;47.538;18.972;2024-01-25T16:35:31;8.40;;;1.13;;
75400;SDS011;63974;47.538;18.972;2024-01-25T16:38:34;5.22;;;1.25;;
75400;SDS011;63974;47.538;18.972;2024-01-25T16:41:36;6.57;;;0.80;;
75400;SDS011;63974;47.538;18.972;2024-01-25T16:44:39;4.20;;;0.93;;
75400;SDS011;63974;47.538;18.972;2024-01-25T16:47:42;7.67;;;1.50;;
75400;SDS011;63974;47.538;18.972;2024-01-25T16:50:44;7.82;;;1.20;;
75400;SDS011;63974;47.538;18.972;2024-01-25T16:53:47;6.97;;;2.20;;
75400;SDS011;63974;47.538;18.972;2024-01-25T16:56:50;14.88;;;7.22;;
75400;SDS011;63974;47.538;18.972;2024-01-25T16:59:53;6.00;;;2.07;;
75400;SDS011;63974;47.538;18.972;2024-01-25T17:02:59;6.07;;;1.30;;
75400;SDS011;63974;47.538;18.972;2024-01-25T17:06:01;3.33;;;1.23;;
75400;SDS011;63974;47.538;18.972;2024-01-25T17:09:04;4.25;;;1.00;;
75400;SDS011;63974;47.538;18.972;2024-01-25T17:12:08;3.15;;;0.88;;
75400;SDS011;63974;47.538;18.972;2024-01-25T17:15:13;4.50;;;0.80;;
75400;SDS011;63974;47.538;18.972;2024-01-25T17:18:16;4.33;;;0.87;;
75400;SDS011;63974;47.538;18.972;2024-01-25T17:21:20;5.15;;;0.77;;
75400;SDS011;63974;47.538;18.972;2024-01-25T17:24:23;7.88;;;1.10;;
75400;SDS011;63974;47.538;18.972;2024-01-25T17:27:26;3.53;;;0.77;;
75400;SDS011;63974;47.538;18.972;2024-01-25T17:30:29;13.13;;;1.77;;
75400;SDS011;63974;47.538;18.972;2024-01-25T17:33:32;4.23;;;1.10;;
75400;SDS011;63974;47.538;18.972;2024-01-25T17:36:42;13.35;;;6.30;;
75400;SDS011;63974;47.538;18.972;2024-01-25T17:39:45;6.50;;;2.33;;
75400;SDS011;63974;47.538;18.972;2024-01-25T17:42:48;3.70;;;1.40;;
75400;SDS011;63974;47.538;18.972;2024-01-25T17:45:51;19.60;;;7.40;;
75400;SDS011;63974;47.538;18.972;2024-01-25T17:48:54;11.07;;;6.27;;
75400;SDS011;63974;47.538;18.972;2024-01-25T17:51:57;8.52;;;2.80;;
75400;SDS011;63974;47.538;18.972;2024-01-25T17:55:00;16.00;;;2.90;;
75400;SDS011;63974;47.538;18.972;2024-01-25T17:58:03;9.32;;;2.78;;